createdAt,value
2023-06-17T00:00:18.480Z,963.01
2023-06-17T00:01:18.155Z,963.00
2023-06-17T00:02:18.113Z,963.00
2023-06-17T00:03:18.142Z,962.99
2023-06-17T00:04:18.095Z,962.98
2023-06-17T00:05:18.101Z,962.97
2023-06-17T00:06:18.079Z,962.96
2023-06-17T00:07:18.059Z,962.95
2023-06-17T00:08:18.076Z,962.93
2023-06-17T00:09:18.038Z,962.92
2023-06-17T00:10:18.189Z,962.91
2023-06-17T00:11:18.044Z,962.90
2023-06-17T00:12:18.030Z,962.90
2023-06-17T00:13:18.016Z,962.89
2023-06-17T00:14:18.025Z,962.89
2023-06-17T00:15:18.063Z,962.89
2023-06-17T00:16:17.977Z,962.88
2023-06-17T00:17:17.978Z,962.88
2023-06-17T00:18:17.949Z,962.88
2023-06-17T00:19:17.996Z,962.87
2023-06-17T00:20:18.131Z,962.87
2023-06-17T00:21:17.922Z,962.86
2023-06-17T00:22:17.909Z,962.86
2023-06-17T00:23:17.899Z,962.86
2023-06-17T00:24:18.027Z,962.85
2023-06-17T00:25:17.874Z,962.85
2023-06-17T00:26:17.875Z,962.85
2023-06-17T00:27:17.886Z,962.84
2023-06-17T00:28:17.876Z,962.83
2023-06-17T00:29:17.879Z,962.83
2023-06-17T00:30:18.101Z,962.82
2023-06-17T00:31:17.815Z,962.81
2023-06-17T00:32:17.802Z,962.80
2023-06-17T00:33:17.803Z,962.79
2023-06-17T00:34:17.795Z,962.78
2023-06-17T00:35:17.767Z,962.77
2023-06-17T00:36:17.765Z,962.77
2023-06-17T00:37:17.761Z,962.77
2023-06-17T00:38:17.758Z,962.76
2023-06-17T00:39:17.737Z,962.76
2023-06-17T00:40:17.946Z,962.76
2023-06-17T00:41:17.703Z,962.76
2023-06-17T00:42:17.721Z,962.76
2023-06-17T00:43:17.698Z,962.76
2023-06-17T00:44:17.678Z,962.75
2023-06-17T00:45:17.660Z,962.74
2023-06-17T00:46:17.695Z,962.74
2023-06-17T00:47:17.658Z,962.73
2023-06-17T00:48:17.709Z,962.71
2023-06-17T00:49:17.619Z,962.71
2023-06-17T00:50:17.699Z,962.70
2023-06-17T00:51:17.623Z,962.69
2023-06-17T00:52:39.442Z,962.70
2023-06-17T00:53:17.584Z,962.70
2023-06-17T00:54:17.574Z,962.71
2023-06-17T00:55:17.558Z,962.72
2023-06-17T00:56:17.581Z,962.72
2023-06-17T00:57:17.542Z,962.72
2023-06-17T00:58:17.533Z,962.72
2023-06-17T00:59:17.521Z,962.72
2023-06-17T01:00:17.612Z,962.72
2023-06-17T01:01:17.559Z,962.71
2023-06-17T01:02:17.496Z,962.70
2023-06-17T01:03:17.544Z,962.70
2023-06-17T01:04:17.543Z,962.69
2023-06-17T01:05:17.500Z,962.69
2023-06-17T01:06:17.473Z,962.68
2023-06-17T01:07:17.451Z,962.68
2023-06-17T01:08:17.449Z,962.68
2023-06-17T01:09:17.415Z,962.69
2023-06-17T01:10:17.530Z,962.69
2023-06-17T01:11:17.405Z,962.71
2023-06-17T01:12:17.395Z,962.71
2023-06-17T01:13:17.376Z,962.71
2023-06-17T01:14:17.368Z,962.72
2023-06-17T01:15:17.616Z,962.71
2023-06-17T01:16:17.389Z,962.70
2023-06-17T01:17:17.333Z,962.70
2023-06-17T01:18:17.329Z,962.70
2023-06-17T01:19:17.314Z,962.70
2023-06-17T01:20:17.324Z,962.71
2023-06-17T01:21:17.299Z,962.72
2023-06-17T01:22:17.327Z,962.72
2023-06-17T01:23:17.280Z,962.72
2023-06-17T01:24:17.308Z,962.72
2023-06-17T01:25:17.263Z,962.72
2023-06-17T01:26:17.245Z,962.72
2023-06-17T01:27:20.264Z,962.72
2023-06-17T01:28:17.293Z,962.71
2023-06-17T01:29:17.220Z,962.71
2023-06-17T01:30:17.227Z,962.70
2023-06-17T01:31:17.190Z,962.70
2023-06-17T01:32:17.189Z,962.69
2023-06-17T01:33:17.248Z,962.68
2023-06-17T01:34:17.180Z,962.66
2023-06-17T01:35:17.174Z,962.65
2023-06-17T01:36:17.137Z,962.64
2023-06-17T01:37:17.147Z,962.64
2023-06-17T01:38:17.136Z,962.64
2023-06-17T01:39:17.115Z,962.63
2023-06-17T01:40:17.109Z,962.63
2023-06-17T01:41:17.084Z,962.63
2023-06-17T01:42:17.099Z,962.63
2023-06-17T01:43:17.083Z,962.63
2023-06-17T01:44:17.062Z,962.64
2023-06-17T01:45:17.041Z,962.64
2023-06-17T01:46:17.085Z,962.63
2023-06-17T01:47:17.048Z,962.63
2023-06-17T01:48:17.025Z,962.64
2023-06-17T01:49:16.997Z,962.65
2023-06-17T01:50:17.002Z,962.65
2023-06-17T01:51:16.978Z,962.66
2023-06-17T01:52:17.010Z,962.65
2023-06-17T01:53:16.992Z,962.65
2023-06-17T01:54:16.957Z,962.65
2023-06-17T01:55:16.972Z,962.64
2023-06-17T01:56:16.954Z,962.63
2023-06-17T01:57:16.934Z,962.63
2023-06-17T01:58:16.943Z,962.64
2023-06-17T01:59:16.907Z,962.64
2023-06-17T02:00:16.889Z,962.63
2023-06-17T02:01:16.912Z,962.63
2023-06-17T02:02:16.881Z,962.63
2023-06-17T02:03:16.907Z,962.62
2023-06-17T02:04:16.847Z,962.62
2023-06-17T02:05:16.831Z,962.61
2023-06-17T02:06:16.875Z,962.60
2023-06-17T02:07:16.823Z,962.59
2023-06-17T02:08:16.894Z,962.59
2023-06-17T02:09:16.791Z,962.59
2023-06-17T02:10:16.792Z,962.59
2023-06-17T02:11:16.790Z,962.58
2023-06-17T02:12:16.767Z,962.56
2023-06-17T02:13:16.751Z,962.56
2023-06-17T02:14:16.768Z,962.56
2023-06-17T02:15:16.754Z,962.56
2023-06-17T02:16:16.756Z,962.56
2023-06-17T02:17:16.706Z,962.55
2023-06-17T02:18:16.712Z,962.55
2023-06-17T02:19:17.052Z,962.54
2023-06-17T02:20:16.701Z,962.53
2023-06-17T02:21:16.671Z,962.52
2023-06-17T02:22:16.661Z,962.50
2023-06-17T02:23:16.657Z,962.49
2023-06-17T02:24:16.691Z,962.48
2023-06-17T02:25:16.641Z,962.48
2023-06-17T02:26:16.617Z,962.47
2023-06-17T02:27:16.613Z,962.46
2023-06-17T02:28:16.600Z,962.45
2023-06-17T02:29:16.598Z,962.44
2023-06-17T02:30:16.590Z,962.43
2023-06-17T02:31:16.638Z,962.44
2023-06-17T02:32:16.577Z,962.43
2023-06-17T02:33:16.488Z,962.42
2023-06-17T02:34:16.508Z,962.41
2023-06-17T02:35:16.482Z,962.40
2023-06-17T02:36:16.466Z,962.39
2023-06-17T02:37:16.446Z,962.39
2023-06-17T02:38:16.453Z,962.38
2023-06-17T02:39:16.445Z,962.37
2023-06-17T02:40:16.427Z,962.36
2023-06-17T02:41:16.406Z,962.36
2023-06-17T02:42:16.405Z,962.36
2023-06-17T02:43:16.390Z,962.36
2023-06-17T02:44:16.411Z,962.36
2023-06-17T02:45:16.405Z,962.37
2023-06-17T02:46:16.397Z,962.37
2023-06-17T02:47:16.449Z,962.38
2023-06-17T02:48:16.351Z,962.38
2023-06-17T02:49:16.344Z,962.37
2023-06-17T02:50:16.327Z,962.36
2023-06-17T02:51:16.311Z,962.35
2023-06-17T02:52:16.290Z,962.34
2023-06-17T02:53:16.345Z,962.33
2023-06-17T02:54:16.270Z,962.34
2023-06-17T02:55:16.265Z,962.34
2023-06-17T02:56:16.256Z,962.35
2023-06-17T02:57:16.272Z,962.36
2023-06-17T02:58:16.242Z,962.36
2023-06-17T02:59:16.227Z,962.37
2023-06-17T03:00:16.211Z,962.37
2023-06-17T03:01:16.242Z,962.38
2023-06-17T03:02:16.245Z,962.37
2023-06-17T03:03:16.288Z,962.37
2023-06-17T03:04:16.186Z,962.38
2023-06-17T03:05:16.162Z,962.39
2023-06-17T03:06:16.143Z,962.39
2023-06-17T03:07:16.178Z,962.39
2023-06-17T03:08:16.130Z,962.40
2023-06-17T03:09:16.119Z,962.39
2023-06-17T03:10:16.110Z,962.39
2023-06-17T03:11:16.121Z,962.39
2023-06-17T03:12:16.118Z,962.39
2023-06-17T03:13:16.080Z,962.39
2023-06-17T03:14:16.070Z,962.38
2023-06-17T03:15:16.068Z,962.39
2023-06-17T03:16:16.110Z,962.38
2023-06-17T03:17:16.053Z,962.38
2023-06-17T03:18:16.020Z,962.39
2023-06-17T03:19:16.015Z,962.38
2023-06-17T03:20:16.001Z,962.38
2023-06-17T03:21:16.013Z,962.38
2023-06-17T03:22:15.981Z,962.38
2023-06-17T03:23:15.992Z,962.38
2023-06-17T03:24:16.003Z,962.39
2023-06-17T03:25:15.957Z,962.38
2023-06-17T03:26:15.947Z,962.38
2023-06-17T03:27:15.938Z,962.39
2023-06-17T03:28:15.923Z,962.39
2023-06-17T03:29:15.937Z,962.40
2023-06-17T03:30:15.908Z,962.41
2023-06-17T03:31:15.944Z,962.41
2023-06-17T03:32:15.928Z,962.42
2023-06-17T03:33:15.952Z,962.42
2023-06-17T03:34:15.906Z,962.42
2023-06-17T03:35:15.894Z,962.42
2023-06-17T03:36:15.841Z,962.43
2023-06-17T03:37:15.840Z,962.42
2023-06-17T03:38:15.843Z,962.42
2023-06-17T03:39:15.830Z,962.41
2023-06-17T03:40:15.834Z,962.42
2023-06-17T03:41:15.801Z,962.42
2023-06-17T03:42:15.780Z,962.43
2023-06-17T03:43:15.780Z,962.45
2023-06-17T03:44:15.771Z,962.45
2023-06-17T03:45:15.760Z,962.47
2023-06-17T03:46:15.784Z,962.47
2023-06-17T03:47:15.731Z,962.47
2023-06-17T03:48:15.751Z,962.46
2023-06-17T03:49:15.791Z,962.46
2023-06-17T03:50:15.721Z,962.46
2023-06-17T03:51:15.688Z,962.46
2023-06-17T03:52:15.672Z,962.47
2023-06-17T03:53:15.676Z,962.47
2023-06-17T03:54:15.661Z,962.48
2023-06-17T03:55:15.680Z,962.49
2023-06-17T03:56:15.647Z,962.49
2023-06-17T03:57:15.634Z,962.49
2023-06-17T03:58:15.636Z,962.49
2023-06-17T03:59:15.603Z,962.49
2023-06-17T04:00:15.586Z,962.49
2023-06-17T04:01:15.581Z,962.49
2023-06-17T04:02:15.628Z,962.50
2023-06-17T04:03:15.651Z,962.50
2023-06-17T04:04:15.585Z,962.51
2023-06-17T04:05:15.573Z,962.50
2023-06-17T04:06:17.458Z,962.50
2023-06-17T04:07:15.532Z,962.51
2023-06-17T04:08:15.570Z,962.51
2023-06-17T04:09:15.497Z,962.51
2023-06-17T04:10:15.490Z,962.52
2023-06-17T04:11:15.477Z,962.53
2023-06-17T04:12:15.479Z,962.54
2023-06-17T04:13:15.460Z,962.53
2023-06-17T04:14:15.450Z,962.54
2023-06-17T04:15:15.440Z,962.54
2023-06-17T04:16:15.457Z,962.54
2023-06-17T04:17:15.449Z,962.54
2023-06-17T04:18:15.499Z,962.54
2023-06-17T04:19:15.529Z,962.54
2023-06-17T04:20:15.380Z,962.55
2023-06-17T04:21:15.406Z,962.55
2023-06-17T04:22:15.357Z,962.55
2023-06-17T04:23:15.360Z,962.55
2023-06-17T04:24:15.388Z,962.54
2023-06-17T04:25:15.349Z,962.54
2023-06-17T04:26:15.347Z,962.53
2023-06-17T04:27:15.321Z,962.53
2023-06-17T04:28:15.299Z,962.55
2023-06-17T04:29:15.293Z,962.55
2023-06-17T04:30:15.291Z,962.56
2023-06-17T04:31:15.285Z,962.56
2023-06-17T04:32:15.252Z,962.55
2023-06-17T04:33:15.289Z,962.55
2023-06-17T04:34:15.243Z,962.54
2023-06-17T04:35:15.234Z,962.53
2023-06-17T04:36:15.228Z,962.52
2023-06-17T04:37:15.226Z,962.52
2023-06-17T04:38:15.204Z,962.50
2023-06-17T04:39:15.185Z,962.49
2023-06-17T04:40:15.195Z,962.47
2023-06-17T04:41:15.170Z,962.46
2023-06-17T04:42:15.155Z,962.46
2023-06-17T04:43:15.167Z,962.45
2023-06-17T04:44:15.226Z,962.46
2023-06-17T04:45:15.144Z,962.46
2023-06-17T04:46:15.151Z,962.44
2023-06-17T04:47:15.107Z,962.44
2023-06-17T04:48:15.098Z,962.42
2023-06-17T04:49:15.114Z,962.41
2023-06-17T04:50:15.084Z,962.40
2023-06-17T04:51:15.068Z,962.39
2023-06-17T04:52:15.057Z,962.40
2023-06-17T04:53:15.057Z,962.41
2023-06-17T04:54:15.043Z,962.40
2023-06-17T04:55:15.041Z,962.40
2023-06-17T04:56:15.010Z,962.40
2023-06-17T04:57:15.020Z,962.39
2023-06-17T04:58:15.011Z,962.39
2023-06-17T04:59:14.997Z,962.39
2023-06-17T05:00:14.988Z,962.38
2023-06-17T05:01:14.994Z,962.37
2023-06-17T05:02:14.951Z,962.36
2023-06-17T05:03:15.022Z,962.35
2023-06-17T05:04:14.928Z,962.35
2023-06-17T05:05:14.928Z,962.34
2023-06-17T05:06:14.933Z,962.35
2023-06-17T05:07:14.892Z,962.37
2023-06-17T05:08:14.895Z,962.38
2023-06-17T05:09:14.875Z,962.40
2023-06-17T05:10:14.873Z,962.41
2023-06-17T05:11:14.867Z,962.43
2023-06-17T05:12:14.861Z,962.43
2023-06-17T05:13:14.849Z,962.42
2023-06-17T05:14:14.823Z,962.42
2023-06-17T05:15:14.831Z,962.41
2023-06-17T05:16:14.824Z,962.40
2023-06-17T05:17:14.863Z,962.39
2023-06-17T05:18:14.834Z,962.39
2023-06-17T05:19:14.788Z,962.39
2023-06-17T05:20:14.776Z,962.39
2023-06-17T05:21:14.753Z,962.39
2023-06-17T05:22:14.757Z,962.39
2023-06-17T05:23:14.740Z,962.38
2023-06-17T05:24:14.818Z,962.39
2023-06-17T05:25:14.734Z,962.39
2023-06-17T05:26:14.721Z,962.39
2023-06-17T05:27:14.716Z,962.39
2023-06-17T05:28:14.704Z,962.39
2023-06-17T05:29:14.683Z,962.39
2023-06-17T05:30:14.672Z,962.40
2023-06-17T05:31:14.719Z,962.40
2023-06-17T05:32:14.639Z,962.40
2023-06-17T05:33:14.631Z,962.40
2023-06-17T05:34:14.632Z,962.40
2023-06-17T05:35:14.623Z,962.40
2023-06-17T05:36:14.619Z,962.41
2023-06-17T05:37:14.593Z,962.42
2023-06-17T05:38:14.591Z,962.44
2023-06-17T05:39:14.683Z,962.44
2023-06-17T05:40:14.598Z,962.45
2023-06-17T05:41:14.576Z,962.46
2023-06-17T05:42:14.536Z,962.46
2023-06-17T05:43:14.559Z,962.47
2023-06-17T05:44:14.547Z,962.48
2023-06-17T05:45:14.524Z,962.48
2023-06-17T05:46:14.522Z,962.50
2023-06-17T05:47:14.494Z,962.50
2023-06-17T05:48:14.534Z,962.51
2023-06-17T05:49:14.481Z,962.52
2023-06-17T05:50:14.479Z,962.53
2023-06-17T05:51:14.454Z,962.53
2023-06-17T05:52:14.432Z,962.54
2023-06-17T05:53:14.429Z,962.55
2023-06-17T05:54:14.525Z,962.56
2023-06-17T05:55:14.406Z,962.57
2023-06-17T05:56:14.423Z,962.58
2023-06-17T05:57:14.385Z,962.59
2023-06-17T05:58:14.368Z,962.59
2023-06-17T05:59:16.142Z,962.59
2023-06-17T06:00:14.386Z,962.59
2023-06-17T06:01:14.370Z,962.59
2023-06-17T06:02:14.340Z,962.60
2023-06-17T06:03:14.350Z,962.61
2023-06-17T06:04:14.388Z,962.62
2023-06-17T06:05:14.311Z,962.61
2023-06-17T06:06:14.295Z,962.61
2023-06-17T06:07:14.309Z,962.62
2023-06-17T06:08:14.286Z,962.61
2023-06-17T06:09:14.269Z,962.61
2023-06-17T06:10:14.259Z,962.60
2023-06-17T06:11:14.268Z,962.60
2023-06-17T06:12:14.244Z,962.61
2023-06-17T06:13:14.256Z,962.60
2023-06-17T06:14:15.925Z,962.61
2023-06-17T06:15:14.223Z,962.63
2023-06-17T06:16:14.290Z,962.63
2023-06-17T06:17:14.232Z,962.65
2023-06-17T06:18:14.193Z,962.65
2023-06-17T06:19:14.178Z,962.64
2023-06-17T06:20:14.154Z,962.63
2023-06-17T06:21:14.160Z,962.64
2023-06-17T06:22:14.167Z,962.64
2023-06-17T06:23:14.157Z,962.65
2023-06-17T06:24:14.127Z,962.65
2023-06-17T06:25:14.117Z,962.65
2023-06-17T06:26:14.147Z,962.65
2023-06-17T06:27:14.120Z,962.65
2023-06-17T06:28:14.071Z,962.64
2023-06-17T06:29:14.061Z,962.64
2023-06-17T06:30:14.064Z,962.64
2023-06-17T06:31:14.071Z,962.64
2023-06-17T06:32:14.050Z,962.65
2023-06-17T06:33:14.043Z,962.66
2023-06-17T06:34:14.010Z,962.66
2023-06-17T06:35:14.008Z,962.67
2023-06-17T06:36:14.016Z,962.68
2023-06-17T06:37:13.982Z,962.68
2023-06-17T06:38:13.969Z,962.70
2023-06-17T06:39:15.296Z,962.70
2023-06-17T06:40:13.984Z,962.71
2023-06-17T06:41:13.971Z,962.72
2023-06-17T06:42:13.960Z,962.73
2023-06-17T06:43:13.930Z,962.74
2023-06-17T06:44:13.910Z,962.73
2023-06-17T06:45:13.930Z,962.73
2023-06-17T06:46:16.092Z,962.74
2023-06-17T06:47:13.891Z,962.73
2023-06-17T06:48:13.892Z,962.72
2023-06-17T06:49:13.862Z,962.72
2023-06-17T06:50:13.871Z,962.72
2023-06-17T06:51:13.852Z,962.72
2023-06-17T06:52:13.826Z,962.72
2023-06-17T06:53:13.820Z,962.74
2023-06-17T06:54:13.827Z,962.75
2023-06-17T06:55:13.835Z,962.75
2023-06-17T06:56:13.825Z,962.76
2023-06-17T06:57:13.801Z,962.76
2023-06-17T06:58:13.799Z,962.76
2023-06-17T06:59:13.814Z,962.77
2023-06-17T07:00:13.762Z,962.78
2023-06-17T07:01:13.778Z,962.79
2023-06-17T07:02:13.730Z,962.80
2023-06-17T07:03:13.769Z,962.82
2023-06-17T07:04:13.744Z,962.82
2023-06-17T07:05:13.927Z,962.83
2023-06-17T07:06:13.708Z,962.84
2023-06-17T07:07:13.686Z,962.83
2023-06-17T07:08:13.703Z,962.84
2023-06-17T07:09:13.675Z,962.84
2023-06-17T07:10:13.677Z,962.83
2023-06-17T07:11:13.661Z,962.83
2023-06-17T07:12:13.641Z,962.82
2023-06-17T07:13:13.642Z,962.81
2023-06-17T07:14:13.622Z,962.81
2023-06-17T07:15:13.600Z,962.79
2023-06-17T07:16:13.625Z,962.79
2023-06-17T07:17:13.662Z,962.79
2023-06-17T07:18:15.986Z,962.78
2023-06-17T07:19:13.563Z,962.79
2023-06-17T07:20:13.567Z,962.80
2023-06-17T07:21:13.569Z,962.80
2023-06-17T07:22:13.560Z,962.80
2023-06-17T07:23:13.545Z,962.80
2023-06-17T07:24:13.541Z,962.79
2023-06-17T07:25:13.509Z,962.80
2023-06-17T07:26:13.504Z,962.79
2023-06-17T07:27:13.511Z,962.79
2023-06-17T07:28:13.472Z,962.78
2023-06-17T07:29:13.463Z,962.79
2023-06-17T07:30:13.458Z,962.78
2023-06-17T07:31:13.490Z,962.78
2023-06-17T07:32:13.520Z,962.80
2023-06-17T07:33:13.484Z,962.80
2023-06-17T07:34:13.423Z,962.80
2023-06-17T07:35:13.402Z,962.79
2023-06-17T07:36:13.412Z,962.78
2023-06-17T07:37:13.415Z,962.78
2023-06-17T07:38:13.382Z,962.77
2023-06-17T07:39:13.369Z,962.75
2023-06-17T07:40:14.471Z,962.75
2023-06-17T07:41:13.358Z,962.74
2023-06-17T07:42:13.354Z,962.74
2023-06-17T07:43:13.365Z,962.74
2023-06-17T07:44:13.335Z,962.74
2023-06-17T07:45:13.316Z,962.74
2023-06-17T07:46:13.348Z,962.75
2023-06-17T07:47:13.287Z,962.74
2023-06-17T07:48:13.318Z,962.73
2023-06-17T07:49:13.283Z,962.72
2023-06-17T07:50:13.279Z,962.73
2023-06-17T07:51:13.267Z,962.72
2023-06-17T07:52:13.249Z,962.72
2023-06-17T07:53:13.230Z,962.71
2023-06-17T07:54:13.243Z,962.70
2023-06-17T07:55:13.280Z,962.69
2023-06-17T07:56:13.215Z,962.69
2023-06-17T07:57:13.198Z,962.67
2023-06-17T07:58:13.229Z,962.66
2023-06-17T07:59:13.190Z,962.66
2023-06-17T08:00:13.180Z,962.65
2023-06-17T08:01:13.152Z,962.65
2023-06-17T08:02:13.184Z,962.68
2023-06-17T08:03:13.291Z,962.67
2023-06-17T08:04:13.310Z,962.66
2023-06-17T08:05:13.190Z,962.65
2023-06-17T08:06:13.118Z,962.63
2023-06-17T08:07:13.143Z,962.63
2023-06-17T08:08:13.085Z,962.63
2023-06-17T08:09:13.108Z,962.63
2023-06-17T08:10:13.081Z,962.62
2023-06-17T08:11:13.075Z,962.62
2023-06-17T08:12:13.058Z,962.63
2023-06-17T08:13:13.046Z,962.64
2023-06-17T08:14:13.065Z,962.62
2023-06-17T08:15:13.015Z,962.61
2023-06-17T08:16:13.029Z,962.58
2023-06-17T08:17:13.000Z,962.60
2023-06-17T08:18:13.058Z,962.59
2023-06-17T08:19:12.998Z,962.60
2023-06-17T08:20:12.991Z,962.61
2023-06-17T08:21:12.983Z,962.60
2023-06-17T08:22:12.956Z,962.59
2023-06-17T08:23:12.966Z,962.59
2023-06-17T08:24:12.994Z,962.58
2023-06-17T08:25:12.920Z,962.56
2023-06-17T08:26:12.920Z,962.55
2023-06-17T08:27:12.907Z,962.57
2023-06-17T08:28:12.911Z,962.59
2023-06-17T08:29:12.888Z,962.59
2023-06-17T08:30:12.876Z,962.58
2023-06-17T08:31:12.865Z,962.57
2023-06-17T08:32:12.884Z,962.56
2023-06-17T08:33:12.930Z,962.54
2023-06-17T08:34:12.860Z,962.55
2023-06-17T08:35:12.824Z,962.54
2023-06-17T08:36:12.830Z,962.53
2023-06-17T08:37:12.824Z,962.53
2023-06-17T08:38:12.799Z,962.52
2023-06-17T08:39:19.291Z,962.51
2023-06-17T08:40:12.790Z,962.51
2023-06-17T08:41:12.775Z,962.50
2023-06-17T08:42:12.775Z,962.50
2023-06-17T08:43:12.747Z,962.49
2023-06-17T08:44:12.885Z,962.48
2023-06-17T08:45:12.724Z,962.47
2023-06-17T08:46:12.766Z,962.47
2023-06-17T08:47:12.722Z,962.47
2023-06-17T08:48:12.816Z,962.47
2023-06-17T08:49:12.715Z,962.46
2023-06-17T08:50:12.733Z,962.46
2023-06-17T08:51:12.680Z,962.47
2023-06-17T08:52:12.684Z,962.44
2023-06-17T08:53:12.693Z,962.45
2023-06-17T08:54:12.650Z,962.48
2023-06-17T08:55:12.643Z,962.48
2023-06-17T08:56:12.674Z,962.43
2023-06-17T08:57:12.614Z,962.46
2023-06-17T08:58:12.648Z,962.43
2023-06-17T08:59:12.632Z,962.41
2023-06-17T09:00:12.632Z,962.39
2023-06-17T09:01:12.619Z,962.37
2023-06-17T09:02:12.605Z,962.35
2023-06-17T09:03:12.610Z,962.34
2023-06-17T09:04:12.576Z,962.35
2023-06-17T09:05:12.601Z,962.33
2023-06-17T09:06:12.544Z,962.34
2023-06-17T09:07:12.520Z,962.37
2023-06-17T09:08:12.542Z,962.39
2023-06-17T09:09:12.503Z,962.40
2023-06-17T09:10:12.513Z,962.40
2023-06-17T09:11:12.488Z,962.42
2023-06-17T09:12:12.489Z,962.42
2023-06-17T09:13:12.478Z,962.44
2023-06-17T09:14:12.564Z,962.40
2023-06-17T09:15:12.460Z,962.40
2023-06-17T09:16:12.451Z,962.39
2023-06-17T09:17:12.511Z,962.40
2023-06-17T09:18:12.494Z,962.45
2023-06-17T09:19:12.477Z,962.43
2023-06-17T09:20:12.470Z,962.47
2023-06-17T09:21:12.399Z,962.43
2023-06-17T09:22:12.394Z,962.42
2023-06-17T09:23:12.386Z,962.40
2023-06-17T09:24:12.495Z,962.41
2023-06-17T09:25:12.411Z,962.42
2023-06-17T09:26:12.334Z,962.46
2023-06-17T09:27:12.321Z,962.40
2023-06-17T09:28:17.134Z,962.40
2023-06-17T09:29:12.319Z,962.40
2023-06-17T09:30:12.335Z,962.42
2023-06-17T09:31:12.282Z,962.42
2023-06-17T09:32:12.270Z,962.42
2023-06-17T09:33:12.286Z,962.41
2023-06-17T09:34:12.284Z,962.42
2023-06-17T09:35:12.253Z,962.41
2023-06-17T09:36:12.234Z,962.38
2023-06-17T09:37:12.209Z,962.36
2023-06-17T09:38:12.245Z,962.39
2023-06-17T09:39:12.275Z,962.38
2023-06-17T09:40:12.203Z,962.37
2023-06-17T09:41:12.191Z,962.37
2023-06-17T09:42:12.279Z,962.40
2023-06-17T09:43:26.855Z,962.39
2023-06-17T09:44:12.209Z,962.38
2023-06-17T09:45:12.138Z,962.38
2023-06-17T09:46:12.209Z,962.39
2023-06-17T09:47:12.125Z,962.35
2023-06-17T09:48:12.317Z,962.39
2023-06-17T09:49:12.112Z,962.39
2023-06-17T09:50:12.176Z,962.37
2023-06-17T09:51:12.099Z,962.35
2023-06-17T09:52:12.129Z,962.34
2023-06-17T09:53:12.058Z,962.36
2023-06-17T09:54:12.058Z,962.35
2023-06-17T09:55:12.065Z,962.33
2023-06-17T09:56:12.841Z,962.33
2023-06-17T09:57:12.067Z,962.30
2023-06-17T09:58:12.045Z,962.24
2023-06-17T09:59:11.992Z,962.24
2023-06-17T10:00:12.041Z,962.18
2023-06-17T10:01:12.002Z,962.21
2023-06-17T10:02:11.989Z,962.22
2023-06-17T10:03:12.060Z,962.20
2023-06-17T10:04:12.091Z,962.21
2023-06-17T10:05:11.980Z,962.19
2023-06-17T10:06:11.948Z,962.19
2023-06-17T10:07:11.929Z,962.17
2023-06-17T10:08:11.920Z,962.16
2023-06-17T10:09:11.949Z,962.13
2023-06-17T10:10:11.919Z,962.17
2023-06-17T10:11:11.901Z,962.18
2023-06-17T10:12:11.899Z,962.15
2023-06-17T10:13:11.897Z,962.12
2023-06-17T10:14:11.858Z,962.09
2023-06-17T10:15:11.880Z,962.12
2023-06-17T10:16:11.857Z,962.14
2023-06-17T10:17:11.838Z,962.11
2023-06-17T10:18:11.912Z,962.12
2023-06-17T10:19:11.828Z,962.16
2023-06-17T10:20:11.815Z,962.09
2023-06-17T10:21:11.793Z,962.07
2023-06-17T10:22:11.792Z,962.10
2023-06-17T10:23:11.774Z,962.10
2023-06-17T10:24:11.826Z,962.06
2023-06-17T10:25:11.747Z,962.09
2023-06-17T10:26:11.757Z,962.09
2023-06-17T10:27:11.754Z,962.06
2023-06-17T10:28:11.758Z,962.11
2023-06-17T10:29:11.757Z,962.07
2023-06-17T10:30:11.731Z,962.07
2023-06-17T10:31:11.696Z,962.06
2023-06-17T10:32:11.691Z,962.04
2023-06-17T10:33:11.749Z,962.03
2023-06-17T10:34:11.694Z,962.04
2023-06-17T10:35:11.646Z,962.04
2023-06-17T10:36:11.660Z,962.03
2023-06-17T10:37:11.640Z,962.01
2023-06-17T10:38:11.661Z,962.00
2023-06-17T10:39:11.726Z,961.99
2023-06-17T10:40:11.652Z,961.97
2023-06-17T10:41:11.607Z,961.95
2023-06-17T10:42:11.587Z,961.96
2023-06-17T10:43:11.583Z,961.94
2023-06-17T10:44:11.568Z,961.95
2023-06-17T10:45:11.580Z,961.98
2023-06-17T10:46:11.642Z,961.97
2023-06-17T10:47:11.553Z,961.99
2023-06-17T10:48:11.572Z,961.97
2023-06-17T10:49:11.512Z,961.96
2023-06-17T10:50:11.523Z,961.95
2023-06-17T10:51:11.515Z,961.96
2023-06-17T10:52:11.551Z,961.94
2023-06-17T10:53:11.525Z,961.92
2023-06-17T10:54:11.470Z,961.90
2023-06-17T10:55:11.492Z,961.89
2023-06-17T10:56:12.762Z,961.86
2023-06-17T10:57:11.460Z,961.85
2023-06-17T10:58:11.470Z,961.84
2023-06-17T10:59:11.433Z,961.86
2023-06-17T11:00:11.467Z,961.84
2023-06-17T11:01:11.523Z,961.88
2023-06-17T11:02:11.553Z,961.90
2023-06-17T11:03:11.452Z,961.90
2023-06-17T11:04:11.392Z,961.91
2023-06-17T11:05:11.427Z,961.90
2023-06-17T11:06:11.480Z,961.91
2023-06-17T11:07:11.360Z,961.87
2023-06-17T11:08:11.340Z,961.87
2023-06-17T11:09:11.330Z,961.84
2023-06-17T11:10:11.354Z,961.88
2023-06-17T11:11:11.330Z,961.87
2023-06-17T11:12:11.309Z,961.86
2023-06-17T11:13:11.352Z,961.84
2023-06-17T11:14:11.281Z,961.87
2023-06-17T11:15:11.271Z,961.89
2023-06-17T11:16:11.302Z,961.87
2023-06-17T11:17:11.316Z,961.86
2023-06-17T11:18:11.366Z,961.83
2023-06-17T11:19:11.225Z,961.83
2023-06-17T11:20:11.233Z,961.82
2023-06-17T11:21:11.231Z,961.84
2023-06-17T11:22:11.194Z,961.83
2023-06-17T11:23:11.201Z,961.85
2023-06-17T11:24:11.302Z,961.83
2023-06-17T11:25:11.197Z,961.81
2023-06-17T11:26:11.182Z,961.80
2023-06-17T11:27:11.166Z,961.79
2023-06-17T11:28:11.146Z,961.79
2023-06-17T11:29:11.133Z,961.78
2023-06-17T11:30:11.136Z,961.78
2023-06-17T11:31:11.174Z,961.81
2023-06-17T11:32:11.180Z,961.80
2023-06-17T11:33:11.184Z,961.76
2023-06-17T11:34:11.089Z,961.76
2023-06-17T11:35:11.107Z,961.74
2023-06-17T11:36:11.416Z,961.75
2023-06-17T11:37:11.103Z,961.74
2023-06-17T11:38:11.054Z,961.77
2023-06-17T11:39:11.067Z,961.71
2023-06-17T11:40:11.039Z,961.68
2023-06-17T11:41:11.011Z,961.70
2023-06-17T11:42:11.101Z,961.72
2023-06-17T11:43:11.012Z,961.71
2023-06-17T11:44:11.027Z,961.74
2023-06-17T11:45:11.017Z,961.70
2023-06-17T11:46:10.963Z,961.68
2023-06-17T11:47:11.022Z,961.70
2023-06-17T11:48:11.001Z,961.75
2023-06-17T11:49:10.945Z,961.71
2023-06-17T11:50:10.940Z,961.70
2023-06-17T11:51:10.910Z,961.69
2023-06-17T11:52:11.275Z,961.66
2023-06-17T11:53:10.923Z,961.61
2023-06-17T11:54:10.873Z,961.59
2023-06-17T11:55:10.882Z,961.59
2023-06-17T11:56:10.877Z,961.58
2023-06-17T11:57:11.208Z,961.59
2023-06-17T11:58:10.854Z,961.59
2023-06-17T11:59:10.847Z,961.57
2023-06-17T12:00:10.981Z,961.63
2023-06-17T12:01:10.822Z,961.60
2023-06-17T12:02:10.866Z,961.66
2023-06-17T12:03:11.882Z,961.60
2023-06-17T12:04:10.823Z,961.62
2023-06-17T12:05:10.795Z,961.65
2023-06-17T12:06:10.797Z,961.65
2023-06-17T12:07:10.791Z,961.64
2023-06-17T12:08:10.753Z,961.58
2023-06-17T12:09:11.101Z,961.60
2023-06-17T12:10:10.734Z,961.65
2023-06-17T12:11:10.729Z,961.65
2023-06-17T12:12:10.742Z,961.66
2023-06-17T12:13:10.705Z,961.66
2023-06-17T12:14:10.737Z,961.66
2023-06-17T12:15:16.536Z,961.60
2023-06-17T12:16:10.723Z,961.60
2023-06-17T12:17:10.735Z,961.62
2023-06-17T12:18:10.718Z,961.64
2023-06-17T12:19:10.661Z,961.65
2023-06-17T12:20:10.635Z,961.61
2023-06-17T12:21:10.656Z,961.64
2023-06-17T12:22:10.618Z,961.60
2023-06-17T12:23:10.603Z,961.65
2023-06-17T12:24:10.640Z,961.63
2023-06-17T12:25:10.604Z,961.62
2023-06-17T12:26:10.601Z,961.56
2023-06-17T12:27:10.578Z,961.56
2023-06-17T12:28:10.553Z,961.58